Amba, Kentucky
Current Conditions -  °F | °C
As of 10:55 PM on Sunday 21 Dec 2014 (Local Time) from KPBX Reporting Station
Clear Clear  
Wind Chill: 35°   Ceiling: Unl
Heat Index: 35°   Visibility: 10mi
Dew Point: 27°   Wind: 0mph
Humidity: 73%   Direction: NA
Pressure: 30.11"   Gusts: NA
Location:  37.4843°N, 82.6492°W
Report Text: KPBX 220355Z AUTO 00000KT 10SM CLR 02/M03 A3011 RMK AO2 T00161028
Loading
Personal Weather Stations






























Interactive Weather Map New forecast layout! Learn more

10-Day Weather Forecast

Advertisements
Track Severe Weather on mobile